createdAt,value
2023-02-05T00:00:05.051Z,32.03
2023-02-05T00:02:34.099Z,27.37
2023-02-05T00:05:02.813Z,24.57
2023-02-05T00:07:32.909Z,38.70
2023-02-05T00:10:01.579Z,29.40
2023-02-05T00:12:30.159Z,31.00
2023-02-05T00:14:58.769Z,19.23
2023-02-05T00:17:27.350Z,31.73
2023-02-05T00:19:56.628Z,21.00
2023-02-05T00:22:25.245Z,24.90
2023-02-05T00:24:55.269Z,24.87
2023-02-05T00:27:23.816Z,36.03
2023-02-05T00:29:52.448Z,28.63
2023-02-05T00:32:21.076Z,33.77
2023-02-05T00:34:49.766Z,26.47
2023-02-05T00:37:18.357Z,25.53
2023-02-05T00:39:46.934Z,22.03
2023-02-05T00:42:17.169Z,32.70
2023-02-05T00:44:45.731Z,13.47
2023-02-05T00:47:14.633Z,28.80
2023-02-05T00:49:43.252Z,22.17
2023-02-05T00:52:11.977Z,22.87
2023-02-05T00:54:40.767Z,30.13
2023-02-05T00:57:09.945Z,23.83
2023-02-05T00:59:39.924Z,25.03
2023-02-05T01:02:08.600Z,27.63
2023-02-05T01:04:37.273Z,36.40
2023-02-05T01:07:05.844Z,26.67
2023-02-05T01:09:34.513Z,25.70
2023-02-05T01:12:03.083Z,23.83
2023-02-05T01:14:31.668Z,27.40
2023-02-05T01:17:01.713Z,33.17
2023-02-05T01:19:30.232Z,36.63
2023-02-05T01:21:58.871Z,30.90
2023-02-05T01:24:27.557Z,40.00
2023-02-05T01:26:58.742Z,31.87
2023-02-05T01:29:29.317Z,45.20
2023-02-05T01:31:58.467Z,38.17
2023-02-05T01:34:28.464Z,42.77
2023-02-05T01:36:57.031Z,42.90
2023-02-05T01:39:25.686Z,57.10
2023-02-05T01:41:54.218Z,47.20
2023-02-05T01:44:25.573Z,47.27
2023-02-05T01:46:56.074Z,38.07
2023-02-05T01:49:27.711Z,45.90
2023-02-05T01:52:03.265Z,38.97
2023-02-05T01:54:36.208Z,41.67
2023-02-05T01:57:09.057Z,41.83
2023-02-05T01:59:41.647Z,49.07
2023-02-05T02:02:10.494Z,41.03
2023-02-05T02:04:42.099Z,36.97
2023-02-05T02:07:14.757Z,40.60
2023-02-05T02:09:45.424Z,37.63
2023-02-05T02:12:16.806Z,38.23
2023-02-05T02:14:48.610Z,39.57
2023-02-05T02:17:18.718Z,40.40
2023-02-05T02:19:56.496Z,40.93
2023-02-05T02:22:59.032Z,50.07
2023-02-05T02:25:56.646Z,52.50
2023-02-05T02:28:30.510Z,41.87
2023-02-05T02:31:05.261Z,39.73
2023-02-05T02:33:38.425Z,52.73
2023-02-05T02:36:13.549Z,42.03
2023-02-05T02:38:46.393Z,38.80
2023-02-05T02:41:19.569Z,49.57
2023-02-05T02:43:53.625Z,46.07
2023-02-05T02:46:26.619Z,46.83
2023-02-05T02:48:58.365Z,49.17
2023-02-05T02:51:29.788Z,53.00
2023-02-05T02:54:01.666Z,47.67
2023-02-05T02:56:33.320Z,56.80
2023-02-05T02:59:07.372Z,44.83
2023-02-05T03:01:39.850Z,48.03
2023-02-05T03:04:11.630Z,50.83
2023-02-05T03:06:43.430Z,42.60
2023-02-05T03:09:18.082Z,47.47
2023-02-05T03:11:46.835Z,42.67
2023-02-05T03:14:16.813Z,48.53
2023-02-05T03:16:45.480Z,46.30
2023-02-05T03:19:14.410Z,36.37
2023-02-05T03:21:47.524Z,49.97
2023-02-05T03:24:16.209Z,55.00
2023-02-05T03:26:44.772Z,51.50
2023-02-05T03:29:19.321Z,43.00
2023-02-05T03:32:00.008Z,44.43
2023-02-05T03:34:42.619Z,53.73
2023-02-05T03:37:17.976Z,47.10
2023-02-05T03:39:58.438Z,45.97
2023-02-05T03:42:37.570Z,60.20
2023-02-05T03:45:24.593Z,42.87
2023-02-05T03:48:12.882Z,47.33
2023-02-05T03:50:51.034Z,41.17
2023-02-05T03:53:25.575Z,54.50
2023-02-05T03:56:00.941Z,44.43
2023-02-05T03:58:34.983Z,46.03
2023-02-05T04:01:05.624Z,42.57
2023-02-05T04:03:34.341Z,53.50
2023-02-05T04:06:02.978Z,36.20
2023-02-05T04:08:31.770Z,44.87
2023-02-05T04:11:00.427Z,42.43
2023-02-05T04:13:29.045Z,46.57
2023-02-05T04:15:57.568Z,38.67
2023-02-05T04:18:27.596Z,46.30
2023-02-05T04:20:56.151Z,56.40
2023-02-05T04:23:24.743Z,45.87
2023-02-05T04:25:54.777Z,36.90
2023-02-05T04:28:23.471Z,43.30
2023-02-05T04:30:52.096Z,44.83
2023-02-05T04:33:20.830Z,36.60
2023-02-05T04:35:50.837Z,37.47
2023-02-05T04:38:19.527Z,37.17
2023-02-05T04:40:48.232Z,34.23
2023-02-05T04:43:16.798Z,46.10
2023-02-05T04:45:45.597Z,30.53
2023-02-05T04:48:14.287Z,30.90
2023-02-05T04:50:42.901Z,35.40
2023-02-05T04:53:12.824Z,29.93
2023-02-05T04:55:41.613Z,30.17
2023-02-05T04:58:10.224Z,35.63
2023-02-05T05:00:38.976Z,37.67
2023-02-05T05:03:07.679Z,40.17
2023-02-05T05:05:36.736Z,32.30
2023-02-05T05:08:05.500Z,33.40
2023-02-05T05:10:35.566Z,30.90
2023-02-05T05:13:04.129Z,30.60
2023-02-05T05:15:33.160Z,33.47
2023-02-05T05:18:01.968Z,23.13
2023-02-05T05:20:30.872Z,39.47
2023-02-05T05:22:59.459Z,25.37
2023-02-05T05:25:28.180Z,38.80
2023-02-05T05:27:58.313Z,29.77
2023-02-05T05:30:26.916Z,47.30
2023-02-05T05:32:55.529Z,30.10
2023-02-05T05:35:24.072Z,43.77
2023-02-05T05:37:52.667Z,29.97
2023-02-05T05:40:38.755Z,23.33
2023-02-05T05:43:28.685Z,22.83
2023-02-05T05:45:57.319Z,22.83
2023-02-05T05:48:26.060Z,27.87
2023-02-05T05:50:54.886Z,24.77
2023-02-05T05:53:23.990Z,27.37
2023-02-05T05:55:52.696Z,23.87
2023-02-05T05:58:22.715Z,16.70
2023-02-05T06:00:51.733Z,24.33
2023-02-05T06:03:22.260Z,18.87
2023-02-05T06:05:50.895Z,15.50
2023-02-05T06:08:19.693Z,22.60
2023-02-05T06:10:48.390Z,16.63
2023-02-05T06:13:17.014Z,14.83
2023-02-05T06:15:47.464Z,20.37
2023-02-05T06:18:34.723Z,9.07
2023-02-05T06:21:03.544Z,9.30
2023-02-05T06:23:32.232Z,15.33
2023-02-05T06:26:01.043Z,30.33
2023-02-05T06:28:29.629Z,24.60
2023-02-05T06:30:59.652Z,9.20
2023-02-05T06:33:28.325Z,19.27
2023-02-05T06:35:56.945Z,12.20
2023-02-05T06:38:25.547Z,18.47
2023-02-05T06:40:54.179Z,12.47
2023-02-05T06:43:22.793Z,11.33
2023-02-05T06:45:51.436Z,13.47
2023-02-05T06:48:21.471Z,15.27
2023-02-05T06:50:50.065Z,15.20
2023-02-05T06:53:18.738Z,17.70
2023-02-05T06:55:47.300Z,12.63
2023-02-05T06:58:15.882Z,14.57
2023-02-05T07:00:44.467Z,11.07
2023-02-05T07:03:13.108Z,12.03
2023-02-05T07:05:43.082Z,10.00
2023-02-05T07:08:11.744Z,21.50
2023-02-05T07:10:40.736Z,16.27
2023-02-05T07:13:09.394Z,16.00
2023-02-05T07:15:38.460Z,13.03
2023-02-05T07:18:07.555Z,22.13
2023-02-05T07:20:36.233Z,19.87
2023-02-05T07:23:06.636Z,14.60
2023-02-05T07:25:37.900Z,19.93
2023-02-05T07:28:07.398Z,19.03
2023-02-05T07:30:36.644Z,24.07
2023-02-05T07:33:06.017Z,16.33
2023-02-05T07:35:37.761Z,25.13
2023-02-05T07:38:07.787Z,19.83
2023-02-05T07:40:38.525Z,15.80
2023-02-05T07:43:07.273Z,8.30
2023-02-05T07:45:36.171Z,26.20
2023-02-05T07:48:05.212Z,11.67
2023-02-05T07:50:33.835Z,19.73
2023-02-05T07:53:02.576Z,32.50
2023-02-05T07:55:32.867Z,24.73
2023-02-05T07:58:01.654Z,25.77
2023-02-05T08:00:30.343Z,34.47
2023-02-05T08:02:58.926Z,14.07
2023-02-05T08:05:28.748Z,22.77
2023-02-05T08:07:57.385Z,20.73
2023-02-05T08:10:26.079Z,18.33
2023-02-05T08:12:56.147Z,20.00
2023-02-05T08:15:24.907Z,16.47
2023-02-05T08:17:53.494Z,16.53
2023-02-05T08:20:22.380Z,21.23
2023-02-05T08:22:50.947Z,22.90
2023-02-05T08:25:19.762Z,13.70
2023-02-05T08:27:49.277Z,19.73
2023-02-05T08:30:21.779Z,23.80
2023-02-05T08:32:51.612Z,16.53
2023-02-05T08:35:20.324Z,21.50
2023-02-05T08:37:48.881Z,19.90
2023-02-05T08:40:17.599Z,18.97
2023-02-05T08:42:46.789Z,25.93
2023-02-05T08:45:15.395Z,17.53
2023-02-05T08:47:45.426Z,19.23
2023-02-05T08:50:14.087Z,12.90
2023-02-05T08:52:42.730Z,24.13
2023-02-05T08:55:11.639Z,14.90
2023-02-05T08:57:40.753Z,21.80
2023-02-05T09:00:10.617Z,12.97
2023-02-05T09:02:39.331Z,25.93
2023-02-05T09:05:09.912Z,20.27
2023-02-05T09:07:40.026Z,26.73
2023-02-05T09:10:10.174Z,13.10
2023-02-05T09:12:38.973Z,13.80
2023-02-05T09:15:08.790Z,14.80
2023-02-05T09:17:38.640Z,22.00
2023-02-05T09:20:09.736Z,14.10
2023-02-05T09:22:38.717Z,25.03
2023-02-05T09:25:08.009Z,18.43
2023-02-05T09:27:36.538Z,17.40
2023-02-05T09:30:05.551Z,17.03
2023-02-05T09:32:34.215Z,22.73
2023-02-05T09:35:02.932Z,17.47
2023-02-05T09:37:32.909Z,30.20
2023-02-05T09:40:19.979Z,32.67
2023-02-05T09:42:59.496Z,16.23
2023-02-05T09:45:39.348Z,23.20
2023-02-05T09:48:28.046Z,20.57
2023-02-05T09:50:58.188Z,24.50
2023-02-05T09:53:34.151Z,29.83
2023-02-05T09:56:04.289Z,25.20
2023-02-05T09:58:35.965Z,29.90
2023-02-05T10:01:07.877Z,20.17
2023-02-05T10:03:45.006Z,33.93
2023-02-05T10:06:29.251Z,26.63
2023-02-05T10:09:08.394Z,17.33
2023-02-05T10:11:43.237Z,23.40
2023-02-05T10:14:20.719Z,17.73
2023-02-05T10:17:16.064Z,27.80
2023-02-05T10:20:01.971Z,33.57
2023-02-05T10:22:40.976Z,20.30
2023-02-05T10:25:45.459Z,30.93
2023-02-05T10:28:29.167Z,20.43
2023-02-05T10:31:03.770Z,19.60
2023-02-05T10:33:45.765Z,23.13
2023-02-05T10:36:15.666Z,27.67
2023-02-05T10:38:45.567Z,23.70
2023-02-05T10:41:20.727Z,20.43
2023-02-05T10:43:53.483Z,23.07
2023-02-05T10:46:22.112Z,18.33
2023-02-05T10:48:55.642Z,26.60
2023-02-05T10:51:30.310Z,32.17
2023-02-05T10:54:01.583Z,21.13
2023-02-05T10:56:32.434Z,29.23
2023-02-05T10:59:02.613Z,23.83
2023-02-05T11:01:36.042Z,25.33
2023-02-05T11:04:08.626Z,18.63
2023-02-05T11:06:40.969Z,27.13
2023-02-05T11:09:31.568Z,26.00
2023-02-05T11:12:04.169Z,26.60
2023-02-05T11:14:36.437Z,29.97
2023-02-05T11:17:18.805Z,17.93
2023-02-05T11:19:55.205Z,39.57
2023-02-05T11:22:29.804Z,29.73
2023-02-05T11:25:12.664Z,18.10
2023-02-05T11:27:42.882Z,25.83
2023-02-05T11:30:37.668Z,25.93
2023-02-05T11:33:24.323Z,26.97
2023-02-05T11:35:55.722Z,24.87
2023-02-05T11:38:31.323Z,30.27
2023-02-05T11:41:01.600Z,28.77
2023-02-05T11:43:33.314Z,29.13
2023-02-05T11:46:04.930Z,29.73
2023-02-05T11:48:40.013Z,27.50
2023-02-05T11:51:11.421Z,22.57
2023-02-05T11:53:51.028Z,21.43
2023-02-05T11:56:25.357Z,21.10
2023-02-05T11:59:03.509Z,26.93
2023-02-05T12:01:34.195Z,21.00
2023-02-05T12:04:04.923Z,19.47
2023-02-05T12:06:39.687Z,23.83
2023-02-05T12:09:11.138Z,26.27
2023-02-05T12:12:11.300Z,31.00
2023-02-05T12:14:45.431Z,33.03
2023-02-05T12:17:29.052Z,28.40
2023-02-05T12:20:03.236Z,18.87
2023-02-05T12:22:53.349Z,19.23
2023-02-05T12:25:26.645Z,21.00
2023-02-05T12:28:13.586Z,23.07
2023-02-05T12:31:00.015Z,21.07
2023-02-05T12:33:56.701Z,26.17
2023-02-05T12:36:45.499Z,21.33
2023-02-05T12:39:27.695Z,28.33
2023-02-05T12:42:07.610Z,21.03
2023-02-05T12:44:50.451Z,30.10
2023-02-05T12:47:44.773Z,36.83
2023-02-05T12:50:40.928Z,23.37
2023-02-05T12:53:23.346Z,26.60
2023-02-05T12:56:12.025Z,19.33
2023-02-05T12:58:44.518Z,18.53
2023-02-05T13:01:17.208Z,20.23
2023-02-05T13:03:51.961Z,28.27
2023-02-05T13:06:25.430Z,22.60
2023-02-05T13:08:59.329Z,28.03
2023-02-05T13:11:32.024Z,32.83
2023-02-05T13:14:07.626Z,21.47
2023-02-05T13:16:42.347Z,20.50
2023-02-05T13:19:23.454Z,20.97
2023-02-05T13:22:11.384Z,23.07
2023-02-05T13:25:04.050Z,32.30
2023-02-05T13:27:55.089Z,19.23
2023-02-05T13:30:29.566Z,25.50
2023-02-05T13:33:01.382Z,20.63
2023-02-05T13:35:38.644Z,19.93
2023-02-05T13:38:28.542Z,20.10
2023-02-05T13:41:35.643Z,26.57
2023-02-05T13:44:37.036Z,16.07
2023-02-05T13:47:28.090Z,14.00
2023-02-05T13:50:14.057Z,15.30
2023-02-05T13:53:06.930Z,31.53
2023-02-05T13:55:52.435Z,31.20
2023-02-05T13:58:24.554Z,22.97
2023-02-05T14:01:00.536Z,23.97
2023-02-05T14:03:36.135Z,25.40
2023-02-05T14:06:23.107Z,12.87
2023-02-05T14:09:01.237Z,36.80
2023-02-05T14:11:30.483Z,18.73
2023-02-05T14:14:28.011Z,22.43
2023-02-05T14:16:58.343Z,28.33
2023-02-05T14:19:56.992Z,30.73
2023-02-05T14:22:42.305Z,23.70
2023-02-05T14:25:48.863Z,22.47
2023-02-05T14:28:45.528Z,28.20
2023-02-05T14:31:50.661Z,20.60
2023-02-05T14:34:50.868Z,23.33
2023-02-05T14:37:35.926Z,15.10
2023-02-05T14:40:27.533Z,25.23
2023-02-05T14:43:09.513Z,21.97
2023-02-05T14:45:47.342Z,35.20
2023-02-05T14:48:26.074Z,19.33
2023-02-05T14:51:09.720Z,32.90
2023-02-05T14:53:39.766Z,25.67
2023-02-05T14:56:08.952Z,24.23
2023-02-05T14:58:40.786Z,23.87
2023-02-05T15:01:46.310Z,24.93
2023-02-05T15:04:28.796Z,24.07
2023-02-05T15:07:01.960Z,33.00
2023-02-05T15:09:40.554Z,24.07
2023-02-05T15:12:47.762Z,22.90
2023-02-05T15:15:33.699Z,26.43
2023-02-05T15:18:16.595Z,27.80
2023-02-05T15:20:49.286Z,16.23
2023-02-05T15:23:36.300Z,30.57
2023-02-05T15:26:07.290Z,20.67
2023-02-05T15:28:40.695Z,35.13
2023-02-05T15:31:23.149Z,20.70
2023-02-05T15:34:00.314Z,34.07
2023-02-05T15:36:35.187Z,26.33
2023-02-05T15:39:24.813Z,22.33
2023-02-05T15:41:56.878Z,29.17
2023-02-05T15:44:30.183Z,17.77
2023-02-05T15:47:01.382Z,21.53
2023-02-05T15:49:36.948Z,20.90
2023-02-05T15:52:06.888Z,19.40
2023-02-05T15:54:38.232Z,19.10
2023-02-05T15:57:08.937Z,26.33
2023-02-05T15:59:37.681Z,34.57
2023-02-05T16:02:10.067Z,20.90
2023-02-05T16:04:40.895Z,21.27
2023-02-05T16:07:22.184Z,41.50
2023-02-05T16:09:54.046Z,22.77
2023-02-05T16:12:22.947Z,28.40
2023-02-05T16:14:59.731Z,28.33
2023-02-05T16:17:33.028Z,28.70
2023-02-05T16:20:16.889Z,31.10
2023-02-05T16:22:47.809Z,26.97
2023-02-05T16:25:29.873Z,31.13
2023-02-05T16:28:00.034Z,33.80
2023-02-05T16:30:33.879Z,47.93
2023-02-05T16:33:05.129Z,36.30
2023-02-05T16:35:38.675Z,24.87
2023-02-05T16:38:14.400Z,26.87
2023-02-05T16:40:46.269Z,30.63
2023-02-05T16:43:26.361Z,29.60
2023-02-05T16:46:25.577Z,50.40
2023-02-05T16:48:56.635Z,37.27
2023-02-05T16:51:56.724Z,21.33
2023-02-05T16:54:33.929Z,29.37
2023-02-05T16:57:10.530Z,34.83
2023-02-05T16:59:51.138Z,36.77
2023-02-05T17:02:29.217Z,39.50
2023-02-05T17:04:59.742Z,36.73
2023-02-05T17:07:31.078Z,32.07
2023-02-05T17:10:18.952Z,31.83
2023-02-05T17:12:53.989Z,21.83
2023-02-05T17:15:43.262Z,25.67
2023-02-05T17:18:22.018Z,21.23
2023-02-05T17:20:50.760Z,21.83
2023-02-05T17:23:23.742Z,31.90
2023-02-05T17:25:55.783Z,30.87
2023-02-05T17:28:27.433Z,30.73
2023-02-05T17:30:58.834Z,46.43
2023-02-05T17:33:29.475Z,34.23
2023-02-05T17:35:58.128Z,25.60
2023-02-05T17:38:28.479Z,43.70
2023-02-05T17:41:11.019Z,41.63
2023-02-05T17:43:39.740Z,32.67
2023-02-05T17:46:13.892Z,30.37
2023-02-05T17:48:44.724Z,40.30
2023-02-05T17:51:19.870Z,36.83
2023-02-05T17:53:50.752Z,34.70
2023-02-05T17:56:21.359Z,31.70
2023-02-05T17:58:51.451Z,32.70
2023-02-05T18:01:20.882Z,37.93
2023-02-05T18:03:49.771Z,29.80
2023-02-05T18:06:20.395Z,21.33
2023-02-05T18:08:50.528Z,36.80
2023-02-05T18:11:19.230Z,21.93
2023-02-05T18:13:47.829Z,37.40
2023-02-05T18:16:16.484Z,23.67
2023-02-05T18:18:45.205Z,33.97
2023-02-05T18:21:13.849Z,24.93
2023-02-05T18:23:42.767Z,39.87
2023-02-05T18:26:12.850Z,36.87
2023-02-05T18:28:41.640Z,39.23
2023-02-05T18:31:11.233Z,29.30
2023-02-05T18:33:40.158Z,45.73
2023-02-05T18:36:10.954Z,29.80
2023-02-05T18:38:43.041Z,36.23
2023-02-05T18:41:17.076Z,21.43
2023-02-05T18:43:46.213Z,33.97
2023-02-05T18:46:17.167Z,25.57
2023-02-05T18:48:46.089Z,25.93
2023-02-05T18:51:16.667Z,33.80
2023-02-05T18:53:45.697Z,37.03
2023-02-05T18:56:18.270Z,31.93
2023-02-05T18:58:52.600Z,34.47
2023-02-05T19:01:21.670Z,37.83
2023-02-05T19:03:52.819Z,20.53
2023-02-05T19:06:22.455Z,38.10
2023-02-05T19:08:51.586Z,45.60
2023-02-05T19:11:24.274Z,38.50
2023-02-05T19:13:57.362Z,33.17
2023-02-05T19:16:27.448Z,46.47
2023-02-05T19:18:56.317Z,33.93
2023-02-05T19:21:26.752Z,21.93
2023-02-05T19:23:57.353Z,33.40
2023-02-05T19:26:29.896Z,29.73
2023-02-05T19:28:59.999Z,35.77
2023-02-05T19:31:31.779Z,32.93
2023-02-05T19:34:00.974Z,29.60
2023-02-05T19:36:30.874Z,28.50
2023-02-05T19:39:01.723Z,21.87
2023-02-05T19:41:34.239Z,42.33
2023-02-05T19:44:06.123Z,23.57
2023-02-05T19:46:37.557Z,29.93
2023-02-05T19:49:09.432Z,30.50
2023-02-05T19:51:39.542Z,30.50
2023-02-05T19:54:08.316Z,43.37
2023-02-05T19:56:38.525Z,46.30
2023-02-05T19:59:07.636Z,33.23
2023-02-05T20:01:38.237Z,50.40
2023-02-05T20:04:11.912Z,32.17
2023-02-05T20:06:41.920Z,29.13
2023-02-05T20:09:13.482Z,48.73
2023-02-05T20:11:45.225Z,48.37
2023-02-05T20:14:14.314Z,38.50
2023-02-05T20:16:45.162Z,26.23
2023-02-05T20:19:15.655Z,29.67
2023-02-05T20:21:45.239Z,33.60
2023-02-05T20:24:15.714Z,40.33
2023-02-05T20:26:48.369Z,33.57
2023-02-05T20:29:35.122Z,42.40
2023-02-05T20:32:03.950Z,30.10
2023-02-05T20:34:36.047Z,35.73
2023-02-05T20:37:09.612Z,33.57
2023-02-05T20:39:41.967Z,48.63
2023-02-05T20:42:13.569Z,35.43
2023-02-05T20:44:43.638Z,46.43
2023-02-05T20:47:14.554Z,45.60
2023-02-05T20:49:43.843Z,33.27
2023-02-05T20:52:13.026Z,36.10
2023-02-05T20:54:42.137Z,36.30
2023-02-05T20:57:14.564Z,40.30
2023-02-05T20:59:43.685Z,31.77
2023-02-05T21:02:13.800Z,44.93
2023-02-05T21:04:42.672Z,51.53
2023-02-05T21:07:11.847Z,32.87
2023-02-05T21:09:40.753Z,44.87
2023-02-05T21:12:09.545Z,39.67
2023-02-05T21:14:39.656Z,29.07
2023-02-05T21:17:09.620Z,40.57
2023-02-05T21:19:39.715Z,33.47
2023-02-05T21:22:08.331Z,56.17
2023-02-05T21:24:36.946Z,28.37
2023-02-05T21:27:06.025Z,24.80
2023-02-05T21:29:34.846Z,49.47
2023-02-05T21:32:05.257Z,32.43
2023-02-05T21:34:33.919Z,39.80
2023-02-05T21:37:02.612Z,36.93
2023-02-05T21:39:31.306Z,35.10
2023-02-05T21:41:59.849Z,36.30
2023-02-05T21:44:28.557Z,33.40
2023-02-05T21:46:57.197Z,42.93
2023-02-05T21:49:27.158Z,25.13
2023-02-05T21:51:55.836Z,25.07
2023-02-05T21:54:25.810Z,34.60
2023-02-05T21:56:54.622Z,30.60
2023-02-05T21:59:23.405Z,29.00
2023-02-05T22:01:52.293Z,20.57
2023-02-05T22:04:20.941Z,31.07
2023-02-05T22:06:51.684Z,31.23
2023-02-05T22:09:20.625Z,31.57
2023-02-05T22:11:51.693Z,21.13
2023-02-05T22:14:20.674Z,34.83
2023-02-05T22:16:49.311Z,29.20
2023-02-05T22:19:17.980Z,28.33
2023-02-05T22:21:46.923Z,30.40
2023-02-05T22:24:18.676Z,40.30
2023-02-05T22:26:48.162Z,31.63
2023-02-05T22:29:19.506Z,29.70
2023-02-05T22:31:52.227Z,23.07
2023-02-05T22:34:21.261Z,26.37
2023-02-05T22:36:49.846Z,28.10
2023-02-05T22:39:19.844Z,41.60
2023-02-05T22:41:48.474Z,29.13
2023-02-05T22:44:17.145Z,35.63
2023-02-05T22:46:46.000Z,40.07
2023-02-05T22:49:15.754Z,28.60
2023-02-05T22:51:45.633Z,36.20
2023-02-05T22:54:16.174Z,51.20
2023-02-05T22:56:46.499Z,54.43
2023-02-05T22:59:15.152Z,44.27
2023-02-05T23:01:44.734Z,47.37
2023-02-05T23:04:13.403Z,36.23
2023-02-05T23:06:43.728Z,42.70
2023-02-05T23:09:15.003Z,35.23
2023-02-05T23:11:45.847Z,32.50
2023-02-05T23:14:15.991Z,43.13
2023-02-05T23:16:47.070Z,22.33
2023-02-05T23:19:18.501Z,44.77
2023-02-05T23:21:48.010Z,27.43
2023-02-05T23:24:17.239Z,38.70
2023-02-05T23:26:49.129Z,32.27
2023-02-05T23:29:17.995Z,30.63
2023-02-05T23:31:46.953Z,27.30
2023-02-05T23:34:15.761Z,32.97
2023-02-05T23:36:44.366Z,26.50
2023-02-05T23:39:12.978Z,44.47
2023-02-05T23:41:41.634Z,42.83
2023-02-05T23:44:14.653Z,26.17
2023-02-05T23:46:44.634Z,25.53
2023-02-05T23:49:14.095Z,49.27
2023-02-05T23:51:43.145Z,21.20
2023-02-05T23:54:12.809Z,30.77
2023-02-05T23:56:41.834Z,32.37
2023-02-05T23:59:13.236Z,36.77
